sensor_id;sensor_type;location;lat;lon;timestamp;P1;durP1;ratioP1;P2;durP2;ratioP2
3155;SDS011;1588;50.892;7.082;2023-07-28T00:04:00;2.60;;;1.93;;
3155;SDS011;1588;50.892;7.082;2023-07-28T00:09:08;6.03;;;2.03;;
3155;SDS011;1588;50.892;7.082;2023-07-28T00:14:12;3.07;;;1.70;;
3155;SDS011;1588;50.892;7.082;2023-07-28T00:19:15;3.73;;;1.53;;
3155;SDS011;1588;50.892;7.082;2023-07-28T00:24:17;1.93;;;1.70;;
3155;SDS011;1588;50.892;7.082;2023-07-28T00:29:22;2.00;;;1.83;;
3155;SDS011;1588;50.892;7.082;2023-07-28T00:34:24;4.67;;;1.93;;
3155;SDS011;1588;50.892;7.082;2023-07-28T00:39:28;2.70;;;2.00;;
3155;SDS011;1588;50.892;7.082;2023-07-28T00:44:31;3.83;;;2.27;;
3155;SDS011;1588;50.892;7.082;2023-07-28T00:49:34;3.93;;;2.00;;
3155;SDS011;1588;50.892;7.082;2023-07-28T00:54:37;2.10;;;1.70;;
3155;SDS011;1588;50.892;7.082;2023-07-28T01:11:40;2.00;;;1.80;;
3155;SDS011;1588;50.892;7.082;2023-07-28T01:17:12;11.40;;;2.93;;
3155;SDS011;1588;50.892;7.082;2023-07-28T01:22:18;5.47;;;2.47;;
3155;SDS011;1588;50.892;7.082;2023-07-28T01:45:47;2.63;;;1.90;;
3155;SDS011;1588;50.892;7.082;2023-07-28T01:50:58;1.97;;;1.53;;
3155;SDS011;1588;50.892;7.082;2023-07-28T01:56:01;10.23;;;1.87;;
3155;SDS011;1588;50.892;7.082;2023-07-28T02:01:04;5.13;;;2.80;;
3155;SDS011;1588;50.892;7.082;2023-07-28T02:06:08;3.37;;;1.90;;
3155;SDS011;1588;50.892;7.082;2023-07-28T02:11:10;4.13;;;1.97;;
3155;SDS011;1588;50.892;7.082;2023-07-28T02:16:14;7.13;;;1.50;;
3155;SDS011;1588;50.892;7.082;2023-07-28T02:21:17;5.10;;;1.33;;
3155;SDS011;1588;50.892;7.082;2023-07-28T02:26:19;5.70;;;1.73;;
3155;SDS011;1588;50.892;7.082;2023-07-28T02:31:23;4.53;;;1.40;;
3155;SDS011;1588;50.892;7.082;2023-07-28T02:36:25;3.10;;;1.20;;
3155;SDS011;1588;50.892;7.082;2023-07-28T02:41:27;3.60;;;1.57;;
3155;SDS011;1588;50.892;7.082;2023-07-28T02:46:31;2.70;;;1.50;;
3155;SDS011;1588;50.892;7.082;2023-07-28T02:51:33;2.00;;;1.50;;
3155;SDS011;1588;50.892;7.082;2023-07-28T02:56:36;2.33;;;1.40;;
3155;SDS011;1588;50.892;7.082;2023-07-28T03:01:40;1.30;;;1.20;;
3155;SDS011;1588;50.892;7.082;2023-07-28T03:06:42;6.13;;;1.60;;
3155;SDS011;1588;50.892;7.082;2023-07-28T03:11:45;1.50;;;1.40;;
3155;SDS011;1588;50.892;7.082;2023-07-28T03:16:48;1.27;;;1.17;;
3155;SDS011;1588;50.892;7.082;2023-07-28T03:21:51;5.70;;;1.20;;
3155;SDS011;1588;50.892;7.082;2023-07-28T03:26:53;1.70;;;1.27;;
3155;SDS011;1588;50.892;7.082;2023-07-28T03:31:57;2.03;;;1.20;;
3155;SDS011;1588;50.892;7.082;2023-07-28T03:37:03;5.30;;;1.03;;
3155;SDS011;1588;50.892;7.082;2023-07-28T03:42:06;3.47;;;1.33;;
3155;SDS011;1588;50.892;7.082;2023-07-28T03:47:10;3.33;;;1.40;;
3155;SDS011;1588;50.892;7.082;2023-07-28T03:52:12;10.13;;;1.57;;
3155;SDS011;1588;50.892;7.082;2023-07-28T03:57:15;1.37;;;1.27;;
3155;SDS011;1588;50.892;7.082;2023-07-28T04:02:21;4.50;;;1.63;;
3155;SDS011;1588;50.892;7.082;2023-07-28T04:07:23;2.27;;;1.40;;
3155;SDS011;1588;50.892;7.082;2023-07-28T04:12:25;1.30;;;1.20;;
3155;SDS011;1588;50.892;7.082;2023-07-28T04:17:30;2.03;;;0.97;;
3155;SDS011;1588;50.892;7.082;2023-07-28T04:22:33;4.30;;;1.20;;
3155;SDS011;1588;50.892;7.082;2023-07-28T04:27:35;1.50;;;1.40;;
3155;SDS011;1588;50.892;7.082;2023-07-28T04:32:39;1.37;;;1.23;;
3155;SDS011;1588;50.892;7.082;2023-07-28T04:37:41;0.93;;;0.93;;
3155;SDS011;1588;50.892;7.082;2023-07-28T04:42:44;2.73;;;1.00;;
3155;SDS011;1588;50.892;7.082;2023-07-28T04:47:48;5.13;;;1.17;;
3155;SDS011;1588;50.892;7.082;2023-07-28T04:52:50;1.50;;;1.30;;
3155;SDS011;1588;50.892;7.082;2023-07-28T04:57:53;3.60;;;1.20;;
3155;SDS011;1588;50.892;7.082;2023-07-28T05:02:57;1.40;;;1.30;;
3155;SDS011;1588;50.892;7.082;2023-07-28T05:07:59;1.53;;;1.10;;
3155;SDS011;1588;50.892;7.082;2023-07-28T05:13:02;6.43;;;1.30;;
3155;SDS011;1588;50.892;7.082;2023-07-28T05:18:06;4.60;;;1.33;;
3155;SDS011;1588;50.892;7.082;2023-07-28T05:23:09;1.27;;;1.17;;
3155;SDS011;1588;50.892;7.082;2023-07-28T05:28:11;2.97;;;1.40;;
3155;SDS011;1588;50.892;7.082;2023-07-28T05:33:15;1.93;;;1.50;;
3155;SDS011;1588;50.892;7.082;2023-07-28T05:38:17;1.80;;;1.70;;
3155;SDS011;1588;50.892;7.082;2023-07-28T05:43:20;1.47;;;1.37;;
3155;SDS011;1588;50.892;7.082;2023-07-28T05:48:24;3.90;;;1.40;;
3155;SDS011;1588;50.892;7.082;2023-07-28T05:53:26;13.63;;;2.10;;
3155;SDS011;1588;50.892;7.082;2023-07-28T05:58:29;16.03;;;1.50;;
3155;SDS011;1588;50.892;7.082;2023-07-28T06:03:32;1.53;;;1.43;;
3155;SDS011;1588;50.892;7.082;2023-07-28T06:08:35;10.73;;;1.77;;
3155;SDS011;1588;50.892;7.082;2023-07-28T06:13:37;1.67;;;1.37;;
3155;SDS011;1588;50.892;7.082;2023-07-28T06:18:42;5.80;;;2.00;;
3155;SDS011;1588;50.892;7.082;2023-07-28T06:30:01;1.27;;;1.00;;
3155;SDS011;1588;50.892;7.082;2023-07-28T06:35:18;8.47;;;1.47;;
3155;SDS011;1588;50.892;7.082;2023-07-28T06:40:33;1.90;;;1.70;;
3155;SDS011;1588;50.892;7.082;2023-07-28T06:45:51;6.17;;;1.00;;
3155;SDS011;1588;50.892;7.082;2023-07-28T06:51:11;1.20;;;1.10;;
3155;SDS011;1588;50.892;7.082;2023-07-28T06:56:22;3.07;;;2.17;;
3155;SDS011;1588;50.892;7.082;2023-07-28T07:01:30;8.87;;;1.67;;
3155;SDS011;1588;50.892;7.082;2023-07-28T07:06:38;4.27;;;1.47;;
3155;SDS011;1588;50.892;7.082;2023-07-28T07:11:47;2.07;;;1.30;;
3155;SDS011;1588;50.892;7.082;2023-07-28T07:16:57;1.77;;;1.50;;
3155;SDS011;1588;50.892;7.082;2023-07-28T07:22:08;1.60;;;1.50;;
3155;SDS011;1588;50.892;7.082;2023-07-28T07:27:15;2.00;;;1.80;;
3155;SDS011;1588;50.892;7.082;2023-07-28T07:32:27;1.70;;;1.60;;
3155;SDS011;1588;50.892;7.082;2023-07-28T07:37:40;2.53;;;1.90;;
3155;SDS011;1588;50.892;7.082;2023-07-28T07:42:49;3.67;;;2.00;;
3155;SDS011;1588;50.892;7.082;2023-07-28T07:47:56;6.40;;;2.37;;
3155;SDS011;1588;50.892;7.082;2023-07-28T07:53:07;6.27;;;2.57;;
3155;SDS011;1588;50.892;7.082;2023-07-28T07:58:12;4.57;;;2.40;;
3155;SDS011;1588;50.892;7.082;2023-07-28T08:03:26;3.80;;;2.87;;
3155;SDS011;1588;50.892;7.082;2023-07-28T08:09:18;26.17;;;3.20;;
3155;SDS011;1588;50.892;7.082;2023-07-28T08:14:33;4.40;;;2.83;;
3155;SDS011;1588;50.892;7.082;2023-07-28T08:19:57;10.83;;;3.30;;
3155;SDS011;1588;50.892;7.082;2023-07-28T08:25:06;4.30;;;3.27;;
3155;SDS011;1588;50.892;7.082;2023-07-28T08:30:20;5.63;;;3.50;;
3155;SDS011;1588;50.892;7.082;2023-07-28T08:35:26;7.97;;;3.30;;
3155;SDS011;1588;50.892;7.082;2023-07-28T08:40:34;4.17;;;3.77;;
3155;SDS011;1588;50.892;7.082;2023-07-28T08:45:38;7.47;;;4.33;;
3155;SDS011;1588;50.892;7.082;2023-07-28T08:50:42;8.73;;;3.20;;
3155;SDS011;1588;50.892;7.082;2023-07-28T08:55:51;6.00;;;3.57;;
3155;SDS011;1588;50.892;7.082;2023-07-28T09:00:53;4.70;;;3.70;;
3155;SDS011;1588;50.892;7.082;2023-07-28T09:05:58;8.90;;;3.37;;
3155;SDS011;1588;50.892;7.082;2023-07-28T09:11:07;4.03;;;3.20;;
3155;SDS011;1588;50.892;7.082;2023-07-28T09:16:17;5.73;;;3.30;;
3155;SDS011;1588;50.892;7.082;2023-07-28T09:21:25;4.80;;;2.80;;
3155;SDS011;1588;50.892;7.082;2023-07-28T09:26:37;3.80;;;2.87;;
3155;SDS011;1588;50.892;7.082;2023-07-28T09:31:45;4.30;;;3.10;;
3155;SDS011;1588;50.892;7.082;2023-07-28T09:37:05;2.73;;;2.53;;
3155;SDS011;1588;50.892;7.082;2023-07-28T09:42:22;2.80;;;2.40;;
3155;SDS011;1588;50.892;7.082;2023-07-28T09:47:36;8.50;;;2.30;;
3155;SDS011;1588;50.892;7.082;2023-07-28T09:52:41;2.63;;;1.80;;
3155;SDS011;1588;50.892;7.082;2023-07-28T09:57:54;8.90;;;1.93;;
3155;SDS011;1588;50.892;7.082;2023-07-28T10:03:00;5.80;;;1.77;;
3155;SDS011;1588;50.892;7.082;2023-07-28T10:08:04;3.03;;;1.43;;
3155;SDS011;1588;50.892;7.082;2023-07-28T10:13:18;2.60;;;1.87;;
3155;SDS011;1588;50.892;7.082;2023-07-28T10:18:23;3.60;;;2.23;;
3155;SDS011;1588;50.892;7.082;2023-07-28T10:23:28;1.70;;;1.60;;
3155;SDS011;1588;50.892;7.082;2023-07-28T10:28:33;1.50;;;1.40;;
3155;SDS011;1588;50.892;7.082;2023-07-28T10:33:43;1.60;;;1.50;;
3155;SDS011;1588;50.892;7.082;2023-07-28T10:38:51;1.70;;;1.60;;
3155;SDS011;1588;50.892;7.082;2023-07-28T10:44:03;1.60;;;1.40;;
3155;SDS011;1588;50.892;7.082;2023-07-28T10:49:06;1.37;;;1.27;;
3155;SDS011;1588;50.892;7.082;2023-07-28T10:54:09;1.83;;;1.73;;
3155;SDS011;1588;50.892;7.082;2023-07-28T10:59:17;1.60;;;1.50;;
3155;SDS011;1588;50.892;7.082;2023-07-28T11:04:21;3.40;;;2.40;;
3155;SDS011;1588;50.892;7.082;2023-07-28T11:09:24;4.70;;;1.50;;
3155;SDS011;1588;50.892;7.082;2023-07-28T11:14:28;1.60;;;1.50;;
3155;SDS011;1588;50.892;7.082;2023-07-28T11:19:39;2.10;;;1.90;;
3155;SDS011;1588;50.892;7.082;2023-07-28T11:24:51;1.60;;;1.50;;
3155;SDS011;1588;50.892;7.082;2023-07-28T11:29:57;2.10;;;1.40;;
3155;SDS011;1588;50.892;7.082;2023-07-28T11:35:04;1.90;;;1.20;;
3155;SDS011;1588;50.892;7.082;2023-07-28T11:40:16;1.60;;;1.50;;
3155;SDS011;1588;50.892;7.082;2023-07-28T11:45:23;2.50;;;1.30;;
3155;SDS011;1588;50.892;7.082;2023-07-28T11:50:38;3.20;;;1.30;;
3155;SDS011;1588;50.892;7.082;2023-07-28T11:55:45;1.67;;;1.57;;
3155;SDS011;1588;50.892;7.082;2023-07-28T12:00:56;8.43;;;1.97;;
3155;SDS011;1588;50.892;7.082;2023-07-28T12:06:12;1.97;;;1.40;;
3155;SDS011;1588;50.892;7.082;2023-07-28T12:11:15;1.53;;;1.40;;
3155;SDS011;1588;50.892;7.082;2023-07-28T12:21:50;1.73;;;1.63;;
3155;SDS011;1588;50.892;7.082;2023-07-28T12:27:00;2.03;;;1.70;;
3155;SDS011;1588;50.892;7.082;2023-07-28T12:32:15;1.70;;;1.60;;
3155;SDS011;1588;50.892;7.082;2023-07-28T12:37:30;1.60;;;1.50;;
3155;SDS011;1588;50.892;7.082;2023-07-28T12:43:19;3.93;;;1.73;;
3155;SDS011;1588;50.892;7.082;2023-07-28T12:49:02;1.80;;;1.70;;
3155;SDS011;1588;50.892;7.082;2023-07-28T12:54:05;1.50;;;1.40;;
3155;SDS011;1588;50.892;7.082;2023-07-28T12:59:18;1.50;;;1.40;;
3155;SDS011;1588;50.892;7.082;2023-07-28T13:05:01;1.70;;;1.60;;
3155;SDS011;1588;50.892;7.082;2023-07-28T13:10:08;4.13;;;1.37;;
3155;SDS011;1588;50.892;7.082;2023-07-28T13:15:14;2.40;;;1.80;;
3155;SDS011;1588;50.892;7.082;2023-07-28T13:20:18;3.13;;;1.50;;
3155;SDS011;1588;50.892;7.082;2023-07-28T13:25:21;1.87;;;1.60;;
3155;SDS011;1588;50.892;7.082;2023-07-28T13:30:33;3.13;;;1.77;;
3155;SDS011;1588;50.892;7.082;2023-07-28T13:35:53;1.77;;;1.57;;
3155;SDS011;1588;50.892;7.082;2023-07-28T13:41:10;3.00;;;1.53;;
3155;SDS011;1588;50.892;7.082;2023-07-28T13:46:13;1.50;;;1.40;;
3155;SDS011;1588;50.892;7.082;2023-07-28T13:51:17;4.30;;;1.60;;
3155;SDS011;1588;50.892;7.082;2023-07-28T13:56:22;2.10;;;1.83;;
3155;SDS011;1588;50.892;7.082;2023-07-28T14:01:24;7.30;;;1.30;;
3155;SDS011;1588;50.892;7.082;2023-07-28T14:06:28;3.47;;;1.90;;
3155;SDS011;1588;50.892;7.082;2023-07-28T14:11:33;4.80;;;1.87;;
3155;SDS011;1588;50.892;7.082;2023-07-28T14:16:38;5.57;;;2.00;;
3155;SDS011;1588;50.892;7.082;2023-07-28T14:21:45;1.83;;;1.73;;
3155;SDS011;1588;50.892;7.082;2023-07-28T14:26:51;1.63;;;1.53;;
3155;SDS011;1588;50.892;7.082;2023-07-28T14:31:54;2.27;;;2.00;;
3155;SDS011;1588;50.892;7.082;2023-07-28T14:37:02;1.93;;;1.63;;
3155;SDS011;1588;50.892;7.082;2023-07-28T14:42:06;1.93;;;1.83;;
3155;SDS011;1588;50.892;7.082;2023-07-28T14:47:09;1.50;;;1.40;;
3155;SDS011;1588;50.892;7.082;2023-07-28T14:52:12;2.53;;;1.83;;
3155;SDS011;1588;50.892;7.082;2023-07-28T14:57:15;1.47;;;1.37;;
3155;SDS011;1588;50.892;7.082;2023-07-28T15:02:17;4.07;;;1.30;;
3155;SDS011;1588;50.892;7.082;2023-07-28T15:07:21;0.90;;;0.90;;
3155;SDS011;1588;50.892;7.082;2023-07-28T15:12:24;1.43;;;1.00;;
3155;SDS011;1588;50.892;7.082;2023-07-28T15:17:26;0.83;;;0.83;;
3155;SDS011;1588;50.892;7.082;2023-07-28T15:22:30;0.80;;;0.80;;
3155;SDS011;1588;50.892;7.082;2023-07-28T15:27:33;1.77;;;1.23;;
3155;SDS011;1588;50.892;7.082;2023-07-28T15:32:36;1.10;;;1.10;;
3155;SDS011;1588;50.892;7.082;2023-07-28T15:37:40;2.63;;;1.10;;
3155;SDS011;1588;50.892;7.082;2023-07-28T15:42:42;1.23;;;1.20;;
3155;SDS011;1588;50.892;7.082;2023-07-28T15:47:45;1.37;;;1.20;;
3155;SDS011;1588;50.892;7.082;2023-07-28T15:52:50;2.17;;;1.30;;
3155;SDS011;1588;50.892;7.082;2023-07-28T15:57:52;1.23;;;1.00;;
3155;SDS011;1588;50.892;7.082;2023-07-28T16:02:55;1.20;;;0.90;;
3155;SDS011;1588;50.892;7.082;2023-07-28T16:07:59;4.20;;;1.43;;
3155;SDS011;1588;50.892;7.082;2023-07-28T16:13:02;2.00;;;1.20;;
3155;SDS011;1588;50.892;7.082;2023-07-28T16:18:04;1.57;;;1.47;;
3155;SDS011;1588;50.892;7.082;2023-07-28T16:23:10;1.57;;;1.47;;
3155;SDS011;1588;50.892;7.082;2023-07-28T16:28:12;3.67;;;1.20;;
3155;SDS011;1588;50.892;7.082;2023-07-28T16:33:15;1.20;;;1.10;;
3155;SDS011;1588;50.892;7.082;2023-07-28T16:38:19;1.60;;;1.50;;
3155;SDS011;1588;50.892;7.082;2023-07-28T16:43:22;2.07;;;1.47;;
3155;SDS011;1588;50.892;7.082;2023-07-28T16:48:24;1.60;;;1.50;;
3155;SDS011;1588;50.892;7.082;2023-07-28T16:53:28;1.33;;;1.23;;
3155;SDS011;1588;50.892;7.082;2023-07-28T16:58:31;4.80;;;1.57;;
3155;SDS011;1588;50.892;7.082;2023-07-28T17:03:36;1.43;;;1.33;;
3155;SDS011;1588;50.892;7.082;2023-07-28T17:08:40;1.90;;;1.33;;
3155;SDS011;1588;50.892;7.082;2023-07-28T17:13:42;1.20;;;1.10;;
3155;SDS011;1588;50.892;7.082;2023-07-28T17:18:45;2.83;;;1.50;;
3155;SDS011;1588;50.892;7.082;2023-07-28T17:23:48;1.17;;;1.07;;
3155;SDS011;1588;50.892;7.082;2023-07-28T17:28:51;3.00;;;1.90;;
3155;SDS011;1588;50.892;7.082;2023-07-28T17:33:53;1.50;;;1.40;;
3155;SDS011;1588;50.892;7.082;2023-07-28T17:38:57;3.57;;;1.70;;
3155;SDS011;1588;50.892;7.082;2023-07-28T17:44:00;2.13;;;1.30;;
3155;SDS011;1588;50.892;7.082;2023-07-28T17:49:03;8.00;;;2.07;;
3155;SDS011;1588;50.892;7.082;2023-07-28T17:54:06;2.00;;;1.80;;
3155;SDS011;1588;50.892;7.082;2023-07-28T17:59:09;2.40;;;1.20;;
3155;SDS011;1588;50.892;7.082;2023-07-28T18:04:11;4.00;;;1.30;;
3155;SDS011;1588;50.892;7.082;2023-07-28T18:09:15;6.17;;;1.67;;
3155;SDS011;1588;50.892;7.082;2023-07-28T18:14:18;1.63;;;1.53;;
3155;SDS011;1588;50.892;7.082;2023-07-28T18:19:21;1.43;;;1.30;;
3155;SDS011;1588;50.892;7.082;2023-07-28T18:24:25;1.70;;;1.60;;
3155;SDS011;1588;50.892;7.082;2023-07-28T18:29:27;4.00;;;1.57;;
3155;SDS011;1588;50.892;7.082;2023-07-28T18:34:30;2.20;;;1.80;;
3155;SDS011;1588;50.892;7.082;2023-07-28T18:39:34;2.30;;;1.83;;
3155;SDS011;1588;50.892;7.082;2023-07-28T18:44:37;1.70;;;1.60;;
3155;SDS011;1588;50.892;7.082;2023-07-28T18:49:40;16.70;;;2.60;;
3155;SDS011;1588;50.892;7.082;2023-07-28T18:54:44;3.77;;;2.20;;
3155;SDS011;1588;50.892;7.082;2023-07-28T18:59:47;2.37;;;2.17;;
3155;SDS011;1588;50.892;7.082;2023-07-28T19:04:49;2.90;;;2.20;;
3155;SDS011;1588;50.892;7.082;2023-07-28T19:09:53;2.37;;;2.20;;
3155;SDS011;1588;50.892;7.082;2023-07-28T19:14:56;2.80;;;2.00;;
3155;SDS011;1588;50.892;7.082;2023-07-28T19:19:58;2.07;;;1.90;;
3155;SDS011;1588;50.892;7.082;2023-07-28T19:25:03;2.87;;;2.40;;
3155;SDS011;1588;50.892;7.082;2023-07-28T19:30:07;2.93;;;2.70;;
3155;SDS011;1588;50.892;7.082;2023-07-28T19:35:09;2.87;;;2.50;;
3155;SDS011;1588;50.892;7.082;2023-07-28T19:40:13;3.33;;;2.43;;
3155;SDS011;1588;50.892;7.082;2023-07-28T19:45:17;3.23;;;2.57;;
3155;SDS011;1588;50.892;7.082;2023-07-28T19:50:19;3.73;;;2.63;;
3155;SDS011;1588;50.892;7.082;2023-07-28T19:55:23;2.90;;;2.40;;
3155;SDS011;1588;50.892;7.082;2023-07-28T20:00:25;3.23;;;2.40;;
3155;SDS011;1588;50.892;7.082;2023-07-28T20:05:28;3.83;;;2.70;;
3155;SDS011;1588;50.892;7.082;2023-07-28T20:10:31;3.43;;;2.27;;
3155;SDS011;1588;50.892;7.082;2023-07-28T20:53:36;4.07;;;2.10;;
3155;SDS011;1588;50.892;7.082;2023-07-28T20:58:41;1.83;;;1.73;;
3155;SDS011;1588;50.892;7.082;2023-07-28T21:03:43;3.13;;;1.83;;
3155;SDS011;1588;50.892;7.082;2023-07-28T21:08:51;12.10;;;2.10;;
3155;SDS011;1588;50.892;7.082;2023-07-28T21:13:54;2.00;;;1.80;;
3155;SDS011;1588;50.892;7.082;2023-07-28T21:18:56;2.40;;;1.43;;
3155;SDS011;1588;50.892;7.082;2023-07-28T21:24:00;1.97;;;1.70;;
3155;SDS011;1588;50.892;7.082;2023-07-28T21:29:02;1.70;;;1.60;;
3155;SDS011;1588;50.892;7.082;2023-07-28T21:34:05;3.37;;;1.80;;
3155;SDS011;1588;50.892;7.082;2023-07-28T21:39:14;1.97;;;1.87;;
3155;SDS011;1588;50.892;7.082;2023-07-28T21:44:17;3.10;;;1.87;;
3155;SDS011;1588;50.892;7.082;2023-07-28T21:49:23;2.40;;;2.20;;
3155;SDS011;1588;50.892;7.082;2023-07-28T21:54:29;2.07;;;1.80;;
3155;SDS011;1588;50.892;7.082;2023-07-28T21:59:32;7.03;;;2.20;;
3155;SDS011;1588;50.892;7.082;2023-07-28T22:04:35;4.80;;;2.07;;
3155;SDS011;1588;50.892;7.082;2023-07-28T22:09:41;2.27;;;2.07;;
3155;SDS011;1588;50.892;7.082;2023-07-28T22:14:43;3.83;;;1.90;;
3155;SDS011;1588;50.892;7.082;2023-07-28T22:19:45;1.70;;;1.60;;
3155;SDS011;1588;50.892;7.082;2023-07-28T22:24:49;2.20;;;1.70;;
3155;SDS011;1588;50.892;7.082;2023-07-28T22:29:52;3.93;;;1.93;;
3155;SDS011;1588;50.892;7.082;2023-07-28T22:34:57;5.60;;;1.90;;
3155;SDS011;1588;50.892;7.082;2023-07-28T22:40:09;1.77;;;1.67;;
3155;SDS011;1588;50.892;7.082;2023-07-28T22:45:12;2.07;;;1.50;;
3155;SDS011;1588;50.892;7.082;2023-07-28T22:50:21;1.90;;;1.77;;
3155;SDS011;1588;50.892;7.082;2023-07-28T22:55:25;2.23;;;2.03;;
3155;SDS011;1588;50.892;7.082;2023-07-28T23:00:27;2.17;;;1.87;;
3155;SDS011;1588;50.892;7.082;2023-07-28T23:05:30;2.60;;;2.30;;
3155;SDS011;1588;50.892;7.082;2023-07-28T23:10:33;2.40;;;2.00;;
3155;SDS011;1588;50.892;7.082;2023-07-28T23:15:36;3.13;;;2.13;;
3155;SDS011;1588;50.892;7.082;2023-07-28T23:20:38;7.70;;;2.17;;
3155;SDS011;1588;50.892;7.082;2023-07-28T23:25:42;7.83;;;2.03;;
3155;SDS011;1588;50.892;7.082;2023-07-28T23:30:46;2.80;;;1.80;;
3155;SDS011;1588;50.892;7.082;2023-07-28T23:35:48;2.03;;;1.87;;
3155;SDS011;1588;50.892;7.082;2023-07-28T23:40:52;10.30;;;2.00;;
3155;SDS011;1588;50.892;7.082;2023-07-28T23:45:54;2.00;;;1.80;;
3155;SDS011;1588;50.892;7.082;2023-07-28T23:50:59;3.60;;;1.93;;
3155;SDS011;1588;50.892;7.082;2023-07-28T23:56:03;10.53;;;2.53;;
